Time;durP1;ratioP1;P1;durP2;ratioP2;P2;SDS_P1;SDS_P2;PMS_P1;PMS_P2;Temp;Humidity;BMP_temperature;BMP_pressure;BME280_temperature;BME280_humidity;BME280_pressure;Samples;Min_cycle;Max_cycle;Signal;HPM_P1;HPM_P2
2022/03/30 00:00:49;;;;;;;;;;;;;;;15.65;97.47;96797.81;5043855;28;19935;-74
2022/03/30 00:03:16;;;;;;;;;;;;;;;15.79;97.35;96792.22;5052377;28;19925;-75
2022/03/30 00:05:44;;;;;;;;;;;;;;;15.90;96.56;96788.06;5053708;28;19936;-74
2022/03/30 00:08:10;;;;;;;;;;;;;;;15.96;96.24;96785.97;5045663;28;19960;-75
2022/03/30 00:10:37;;;;;;;;;;;;;;;15.97;94.65;96787.53;5027884;28;20326;-74
2022/03/30 00:13:03;;;;;;;;;;;;;;;15.89;95.43;96789.16;5048308;28;19964;-78
2022/03/30 00:15:30;;;;;;;;;;;;;;;15.73;97.41;96782.75;5039577;28;19925;-75
2022/03/30 00:17:57;;;;;;;;;;;;;;;15.12;100.00;96784.78;5037701;28;19935;-76
2022/03/30 00:20:23;;;;;;;;;;;;;;;14.50;100.00;96778.19;5035680;28;20202;-74
2022/03/30 00:22:51;;;;;;;;;;;;;;;14.24;100.00;96774.63;5054647;28;19933;-74
2022/03/30 00:25:17;;;;;;;;;;;;;;;13.78;100.00;96775.16;5057126;28;20032;-74
2022/03/30 00:27:46;;;;;;;;;;;;;;;13.35;100.00;96764.25;5056845;28;19925;-74
2022/03/30 00:30:13;;;;;;;;;;;;;;;13.23;100.00;96761.34;5035925;28;19939;-73
2022/03/30 00:32:40;;;;;;;;;;;;;;;13.53;100.00;96771.25;5035897;28;19957;-75
2022/03/30 00:35:07;;;;;;;;;;;;;;;14.11;100.00;96765.63;5056802;28;19924;-75
2022/03/30 00:37:34;;;;;;;;;;;;;;;14.31;100.00;96759.66;5056932;28;19924;-77
2022/03/30 00:40:02;;;;;;;;;;;;;;;14.75;100.00;96763.16;5054218;28;19987;-74
2022/03/30 00:42:28;;;;;;;;;;;;;;;15.06;100.00;96753.81;5053347;28;20465;-75
2022/03/30 00:44:54;;;;;;;;;;;;;;;14.56;100.00;96752.75;5038372;28;19925;-74
2022/03/30 00:47:23;;;;;;;;;;;;;;;14.34;100.00;96748.31;5042799;28;19947;-75
2022/03/30 00:49:49;;;;;;;;;;;;;;;14.79;100.00;96739.94;5059602;28;19960;-75
2022/03/30 00:52:16;;;;;;;;;;;;;;;14.87;100.00;96742.59;5039002;28;20175;-75
2022/03/30 00:54:44;;;;;;;;;;;;;;;15.01;100.00;96734.34;5038808;28;19925;-75
2022/03/30 00:57:12;;;;;;;;;;;;;;;14.79;100.00;96735.31;5056232;28;19925;-75
2022/03/30 00:59:38;;;;;;;;;;;;;;;15.12;100.00;96724.84;5057563;28;20032;-75
2022/03/30 01:02:05;;;;;;;;;;;;;;;15.32;100.00;96720.69;5042974;28;20440;-75
2022/03/30 01:04:32;;;;;;;;;;;;;;;15.45;99.12;96717.75;5060867;28;20019;-76
2022/03/30 01:06:58;;;;;;;;;;;;;;;15.50;98.11;96704.19;5058813;28;20023;-76
2022/03/30 01:09:25;;;;;;;;;;;;;;;15.25;100.00;96706.94;5056617;28;19970;-75
2022/03/30 01:11:52;;;;;;;;;;;;;;;15.37;100.00;96701.66;5056445;28;19931;-75
2022/03/30 01:14:20;;;;;;;;;;;;;;;15.42;99.87;96706.84;5056275;28;20016;-75
2022/03/30 01:16:47;;;;;;;;;;;;;;;15.45;98.94;96692.75;5056299;28;19992;-75
2022/03/30 01:19:14;;;;;;;;;;;;;;;15.33;100.00;96698.03;5060191;28;19925;-75
2022/03/30 01:21:42;;;;;;;;;;;;;;;15.44;98.71;96688.50;5042092;28;19999;-75
2022/03/30 01:24:10;;;;;;;;;;;;;;;15.55;98.51;96689.75;5048168;28;19983;-75
2022/03/30 01:26:37;;;;;;;;;;;;;;;15.64;97.46;96687.78;5048175;28;19981;-75
2022/03/30 01:32:24;;;;;;;;;;;;;;;15.69;96.71;96676.06;5048228;28;19925;-75
2022/03/30 01:34:35;;;;;;;;;;;;;;;15.71;96.13;96671.16;5047675;28;19964;-76
2022/03/30 01:37:03;;;;;;;;;;;;;;;15.70;96.75;96661.47;5047474;28;20402;-76
2022/03/30 01:39:29;;;;;;;;;;;;;;;15.63;97.19;96656.59;5046354;28;19952;-74
2022/03/30 01:41:56;;;;;;;;;;;;;;;15.70;96.96;96653.41;5047352;28;19976;-75
2022/03/30 01:44:22;;;;;;;;;;;;;;;15.70;96.34;96648.03;5055697;28;19937;-75
2022/03/30 01:46:49;;;;;;;;;;;;;;;15.68;96.40;96651.06;5038431;28;19925;-75
2022/03/30 01:49:15;;;;;;;;;;;;;;;15.70;96.61;96648.81;5059328;28;19925;-75
2022/03/30 01:51:41;;;;;;;;;;;;;;;15.72;96.30;96646.56;5058976;28;20469;-76
2022/03/30 01:54:09;;;;;;;;;;;;;;;15.27;100.00;96638.25;5055579;28;19992;-75
2022/03/30 01:56:35;;;;;;;;;;;;;;;14.75;100.00;96644.94;5054862;28;20359;-75
2022/03/30 01:59:02;;;;;;;;;;;;;;;14.75;100.00;96642.25;5039904;28;19979;-75
2022/03/30 02:01:28;;;;;;;;;;;;;;;14.83;100.00;96646.78;5040925;28;19932;-76
2022/03/30 02:03:56;;;;;;;;;;;;;;;14.74;100.00;96636.06;5057768;28;19956;-75
2022/03/30 02:06:24;;;;;;;;;;;;;;;14.87;100.00;96631.59;5055977;28;19935;-75
2022/03/30 02:08:50;;;;;;;;;;;;;;;14.93;100.00;96636.50;5038962;28;19926;-75
2022/03/30 02:11:18;;;;;;;;;;;;;;;15.11;100.00;96626.47;5058714;28;19984;-75
2022/03/30 02:13:45;;;;;;;;;;;;;;;15.29;100.00;96621.81;5058356;28;19952;-75
2022/03/30 02:16:11;;;;;;;;;;;;;;;15.27;100.00;96613.25;5055072;28;19925;-75
2022/03/30 02:18:38;;;;;;;;;;;;;;;15.26;99.65;96609.78;5055281;28;19925;-75
2022/03/30 02:21:05;;;;;;;;;;;;;;;15.34;98.91;96602.78;5058213;28;19928;-75
2022/03/30 02:23:32;;;;;;;;;;;;;;;15.28;99.42;96609.47;5041112;28;19963;-75
2022/03/30 02:25:58;;;;;;;;;;;;;;;15.06;100.00;96597.06;5055074;28;19925;-75
2022/03/30 02:28:26;;;;;;;;;;;;;;;15.07;100.00;96604.03;5055072;28;19988;-75
2022/03/30 02:30:52;;;;;;;;;;;;;;;15.23;100.00;96604.25;5038160;28;19960;-75
2022/03/30 02:33:19;;;;;;;;;;;;;;;15.19;100.00;96601.44;5058198;28;19951;-75
2022/03/30 02:35:45;;;;;;;;;;;;;;;15.19;100.00;96598.75;5040074;28;20015;-75
2022/03/30 02:38:11;;;;;;;;;;;;;;;15.29;99.46;96601.06;5054455;28;19999;-75
2022/03/30 02:40:38;;;;;;;;;;;;;;;15.42;98.82;96594.66;5037042;28;19948;-75
2022/03/30 02:43:04;;;;;;;;;;;;;;;15.46;98.67;96595.59;5057393;28;19964;-75
2022/03/30 02:45:32;;;;;;;;;;;;;;;15.49;98.58;96589.59;5058374;28;20460;-75
2022/03/30 02:50:44;;;;;;;;;;;;;;;15.49;97.80;96580.72;5036403;28;19951;-75
2022/03/30 02:53:10;;;;;;;;;;;;;;;15.45;97.88;96587.84;5046149;28;19968;-75
2022/03/30 02:55:37;;;;;;;;;;;;;;;15.34;98.48;96582.06;5046097;28;19932;-75
2022/03/30 02:58:04;;;;;;;;;;;;;;;15.45;98.10;96582.47;5046422;28;20368;-75
2022/03/30 03:00:30;;;;;;;;;;;;;;;15.48;97.54;96579.16;5046295;28;20028;-76
2022/03/30 03:02:58;;;;;;;;;;;;;;;15.50;97.21;96566.19;5046533;28;19992;-76
2022/03/30 03:05:27;;;;;;;;;;;;;;;15.49;97.25;96586.13;5046613;28;19989;-75
2022/03/30 03:07:54;;;;;;;;;;;;;;;15.46;98.01;96581.34;5027874;28;19925;-75
2022/03/30 03:10:21;;;;;;;;;;;;;;;15.48;97.76;96581.84;5045994;28;19969;-75
2022/03/30 03:12:47;;;;;;;;;;;;;;;15.51;97.28;96584.66;5046433;28;20246;-76
2022/03/30 03:15:13;;;;;;;;;;;;;;;15.50;97.02;96585.81;5057890;28;19966;-76
2022/03/30 03:17:40;;;;;;;;;;;;;;;15.41;97.59;96576.19;5039783;28;19968;-76
2022/03/30 03:20:08;;;;;;;;;;;;;;;15.02;100.00;96574.63;5054350;28;19993;-75
2022/03/30 03:22:35;;;;;;;;;;;;;;;14.74;100.00;96565.41;5053950;28;19925;-76
2022/03/30 03:25:01;;;;;;;;;;;;;;;14.73;100.00;96564.63;5056145;28;19992;-75
2022/03/30 03:27:28;;;;;;;;;;;;;;;14.54;100.00;96566.91;5057364;28;20010;-75
2022/03/30 03:29:55;;;;;;;;;;;;;;;14.18;100.00;96555.72;5055996;28;19936;-75
2022/03/30 03:32:21;;;;;;;;;;;;;;;13.82;100.00;96556.09;5036117;28;19982;-75
2022/03/30 03:34:48;;;;;;;;;;;;;;;13.76;100.00;96549.31;5054878;28;19983;-75
2022/03/30 03:37:16;;;;;;;;;;;;;;;13.41;100.00;96551.16;5057731;28;19925;-75
2022/03/30 03:39:42;;;;;;;;;;;;;;;13.37;100.00;96560.94;5057230;28;19928;-75
2022/03/30 03:42:09;;;;;;;;;;;;;;;13.17;100.00;96548.91;5054632;28;19925;-75
2022/03/30 03:44:35;;;;;;;;;;;;;;;13.44;100.00;96558.59;5055093;28;20000;-76
2022/03/30 03:47:01;;;;;;;;;;;;;;;13.70;100.00;96572.03;5057699;28;20016;-74
2022/03/30 03:49:28;;;;;;;;;;;;;;;13.77;100.00;96546.28;5057266;28;19984;-74
2022/03/30 03:51:54;;;;;;;;;;;;;;;13.78;100.00;96547.88;5039016;28;19952;-75
2022/03/30 03:54:22;;;;;;;;;;;;;;;14.00;100.00;96557.66;5036639;28;19925;-74
2022/03/30 03:56:48;;;;;;;;;;;;;;;14.28;100.00;96544.66;5054897;28;19929;-74
2022/03/30 03:59:15;;;;;;;;;;;;;;;14.43;100.00;96538.81;5057493;28;19924;-74
2022/03/30 04:01:41;;;;;;;;;;;;;;;14.66;100.00;96539.38;5039497;28;19925;-75
2022/03/30 04:04:07;;;;;;;;;;;;;;;14.76;100.00;96541.72;5054222;28;19925;-75
2022/03/30 04:06:34;;;;;;;;;;;;;;;14.80;100.00;96539.94;5035931;28;19967;-75
2022/03/30 04:09:00;;;;;;;;;;;;;;;14.69;100.00;96538.72;5037848;28;19957;-75
2022/03/30 04:11:28;;;;;;;;;;;;;;;14.63;100.00;96529.28;5056940;28;19936;-75
2022/03/30 04:13:54;;;;;;;;;;;;;;;14.48;100.00;96531.34;5055673;28;20042;-75
2022/03/30 04:16:21;;;;;;;;;;;;;;;14.58;100.00;96528.31;5053844;28;19925;-75
2022/03/30 04:18:48;;;;;;;;;;;;;;;14.67;100.00;96520.22;5037101;28;19925;-75
2022/03/30 04:21:14;;;;;;;;;;;;;;;14.49;100.00;96522.19;5042817;28;19971;-75
2022/03/30 04:23:40;;;;;;;;;;;;;;;14.49;100.00;96524.09;5042826;28;19925;-75
2022/03/30 04:26:10;;;;;;;;;;;;;;;14.54;100.00;96515.88;5039777;28;19925;-75
2022/03/30 04:28:40;;;;;;;;;;;;;;;14.59;100.00;96515.69;5039634;28;19936;-74
2022/03/30 04:31:07;;;;;;;;;;;;;;;14.37;100.00;96511.34;5060813;28;19935;-74
2022/03/30 04:33:33;;;;;;;;;;;;;;;14.25;100.00;96507.72;5061547;28;19971;-74
2022/03/30 04:35:59;;;;;;;;;;;;;;;14.25;100.00;96505.03;5041583;28;19952;-75
2022/03/30 04:38:26;;;;;;;;;;;;;;;14.26;100.00;96501.25;5057698;28;19936;-75
2022/03/30 04:40:52;;;;;;;;;;;;;;;14.17;100.00;96497.78;5058882;28;19996;-74
2022/03/30 04:43:19;;;;;;;;;;;;;;;14.34;100.00;96500.44;5060793;28;19925;-74
2022/03/30 04:45:47;;;;;;;;;;;;;;;14.34;100.00;96489.69;5059620;28;20326;-75
2022/03/30 04:48:13;;;;;;;;;;;;;;;14.47;100.00;96504.84;5057436;28;20265;-75
2022/03/30 04:50:40;;;;;;;;;;;;;;;14.58;100.00;96503.34;5058103;28;19922;-75
2022/03/30 04:53:06;;;;;;;;;;;;;;;14.65;100.00;96500.16;5060322;28;19967;-75
2022/03/30 04:55:33;;;;;;;;;;;;;;;14.72;100.00;96500.47;5060361;28;19956;-75
2022/03/30 04:57:59;;;;;;;;;;;;;;;14.76;100.00;96502.16;5058453;28;19935;-75
2022/03/30 05:00:26;;;;;;;;;;;;;;;14.47;100.00;96502.94;5038791;28;19925;-75
2022/03/30 05:02:54;;;;;;;;;;;;;;;14.43;100.00;96490.47;5058094;28;20346;-74
2022/03/30 05:05:21;;;;;;;;;;;;;;;13.88;100.00;96483.16;5059952;28;19924;-76
2022/03/30 05:07:47;;;;;;;;;;;;;;;13.65;100.00;96492.47;5059767;28;20439;-75
2022/03/30 05:10:15;;;;;;;;;;;;;;;14.06;100.00;96479.34;5056481;28;19925;-73
2022/03/30 05:12:41;;;;;;;;;;;;;;;13.92;100.00;96484.09;5056594;28;19925;-73
2022/03/30 05:15:09;;;;;;;;;;;;;;;13.57;100.00;96485.25;5059604;28;19929;-74
2022/03/30 05:17:35;;;;;;;;;;;;;;;13.85;100.00;96473.06;5058484;28;19925;-74
2022/03/30 05:20:04;;;;;;;;;;;;;;;13.69;100.00;96480.03;5057325;28;20553;-74
2022/03/30 05:22:30;;;;;;;;;;;;;;;13.83;100.00;96480.63;5038281;28;20421;-74
2022/03/30 05:24:56;;;;;;;;;;;;;;;14.23;100.00;96469.66;5057967;28;19935;-73
2022/03/30 05:27:23;;;;;;;;;;;;;;;14.42;100.00;96473.56;5059585;28;19924;-73
2022/03/30 05:29:49;;;;;;;;;;;;;;;14.61;100.00;96472.41;5058063;28;20555;-74
2022/03/30 05:32:16;;;;;;;;;;;;;;;14.69;100.00;96476.94;5055717;28;19925;-74
2022/03/30 05:34:42;;;;;;;;;;;;;;;14.70;100.00;96481.97;5055332;28;19925;-74
2022/03/30 05:37:10;;;;;;;;;;;;;;;14.28;100.00;96477.53;5059082;28;19925;-74
2022/03/30 05:39:41;;;;;;;;;;;;;;;14.10;100.00;96476.00;5058650;28;19928;-74
2022/03/30 05:42:07;;;;;;;;;;;;;;;13.93;100.00;96485.66;5037736;28;19964;-74
2022/03/30 05:44:34;;;;;;;;;;;;;;;13.93;100.00;96476.81;5055379;28;19947;-74
2022/03/30 05:47:00;;;;;;;;;;;;;;;13.93;100.00;96479.50;5039613;28;20016;-74
2022/03/30 05:49:27;;;;;;;;;;;;;;;13.89;100.00;96478.59;5041101;28;19956;-74
2022/03/30 05:51:53;;;;;;;;;;;;;;;14.06;100.00;96467.81;5057779;28;19932;-74
2022/03/30 05:54:21;;;;;;;;;;;;;;;14.14;100.00;96471.59;5055232;28;20019;-74
2022/03/30 05:57:02;;;;;;;;;;;;;;;13.98;100.00;96465.94;5055590;28;20004;-74
2022/03/30 05:59:30;;;;;;;;;;;;;;;14.24;100.00;96463.94;5058376;28;20440;-73
2022/03/30 06:01:56;;;;;;;;;;;;;;;14.34;100.00;96471.69;5039082;28;19925;-74
2022/03/30 06:04:23;;;;;;;;;;;;;;;14.38;100.00;96466.47;5054816;28;19976;-74
2022/03/30 06:06:50;;;;;;;;;;;;;;;14.49;100.00;96465.00;5037710;28;19926;-74
2022/03/30 06:09:17;;;;;;;;;;;;;;;14.58;100.00;96465.75;5058392;28;20039;-74
2022/03/30 06:11:45;;;;;;;;;;;;;;;14.66;100.00;96470.31;5040193;28;19924;-73
2022/03/30 06:14:12;;;;;;;;;;;;;;;14.70;100.00;96473.13;5054787;28;19925;-74
2022/03/30 06:16:38;;;;;;;;;;;;;;;14.61;100.00;96462.41;5054862;28;19925;-74
2022/03/30 06:19:05;;;;;;;;;;;;;;;14.51;100.00;96462.78;5057586;28;19928;-74
2022/03/30 06:21:32;;;;;;;;;;;;;;;14.45;100.00;96466.78;5040187;28;20011;-74
2022/03/30 06:23:59;;;;;;;;;;;;;;;14.31;100.00;96466.16;5038998;28;20020;-74
2022/03/30 06:26:25;;;;;;;;;;;;;;;14.16;100.00;96456.72;5036905;28;19925;-74
2022/03/30 06:28:53;;;;;;;;;;;;;;;14.00;100.00;96464.50;5037796;28;19992;-74
2022/03/30 06:31:20;;;;;;;;;;;;;;;13.81;100.00;96471.31;5058048;28;19925;-74
2022/03/30 06:33:47;;;;;;;;;;;;;;;13.71;100.00;96469.00;5040025;28;19988;-73
2022/03/30 06:36:14;;;;;;;;;;;;;;;13.54;100.00;96467.09;5054355;28;20022;-73
2022/03/30 06:38:41;;;;;;;;;;;;;;;13.16;100.00;96472.28;5054062;28;19944;-73
2022/03/30 06:41:08;;;;;;;;;;;;;;;12.71;100.00;96463.69;5057506;28;19929;-73
2022/03/30 06:43:36;;;;;;;;;;;;;;;12.55;100.00;96462.53;5057691;28;19960;-73
2022/03/30 06:46:04;;;;;;;;;;;;;;;12.65;100.00;96459.56;5055191;28;19925;-73
2022/03/30 06:48:30;;;;;;;;;;;;;;;12.48;100.00;96458.69;5055042;28;19967;-73
2022/03/30 06:50:57;;;;;;;;;;;;;;;12.47;100.00;96455.25;5056042;28;19948;-73
2022/03/30 06:53:23;;;;;;;;;;;;;;;12.68;100.00;96461.63;5057740;28;19960;-74
2022/03/30 06:55:50;;;;;;;;;;;;;;;12.72;100.00;96457.19;5056840;28;19971;-73
2022/03/30 06:58:17;;;;;;;;;;;;;;;12.56;100.00;96450.72;5036258;28;19952;-73
2022/03/30 07:00:43;;;;;;;;;;;;;;;12.53;100.00;96462.06;5053757;28;19928;-73
2022/03/30 07:03:11;;;;;;;;;;;;;;;12.71;100.00;96455.63;5054007;28;19993;-74
2022/03/30 07:05:38;;;;;;;;;;;;;;;12.30;100.00;96461.31;5053960;28;20353;-73
2022/03/30 07:10:49;;;;;;;;;;;;;;;12.13;100.00;96447.84;5056940;28;19955;-73
2022/03/30 07:13:17;;;;;;;;;;;;;;;11.96;100.00;96452.34;5049679;28;20134;-73
2022/03/30 07:15:43;;;;;;;;;;;;;;;12.34;100.00;96456.94;5057406;28;19940;-73
2022/03/30 07:18:13;;;;;;;;;;;;;;;12.66;100.00;96453.09;5035666;28;19960;-73
2022/03/30 07:20:39;;;;;;;;;;;;;;;12.62;100.00;96446.78;5036095;28;20007;-73
2022/03/30 07:23:06;;;;;;;;;;;;;;;12.80;100.00;96450.28;5057231;28;19925;-73
2022/03/30 07:25:32;;;;;;;;;;;;;;;12.66;100.00;96453.09;5057317;28;19988;-73
2022/03/30 07:27:59;;;;;;;;;;;;;;;12.55;100.00;96445.66;5037489;28;19929;-73
2022/03/30 07:30:27;;;;;;;;;;;;;;;12.98;100.00;96444.66;5053319;28;19925;-73
2022/03/30 07:32:55;;;;;;;;;;;;;;;12.68;100.00;96440.19;5054744;28;19925;-73
2022/03/30 07:35:24;;;;;;;;;;;;;;;12.72;100.00;96446.47;5056868;28;20309;-72
2022/03/30 07:37:50;;;;;;;;;;;;;;;12.48;100.00;96453.34;5038573;28;19920;-72
2022/03/30 07:40:18;;;;;;;;;;;;;;;12.16;100.00;96443.78;5035772;28;19925;-73
2022/03/30 07:42:45;;;;;;;;;;;;;;;12.05;100.00;96442.47;5053475;28;19925;-73
2022/03/30 07:45:12;;;;;;;;;;;;;;;11.98;100.00;96448.25;5057144;28;20020;-73
2022/03/30 07:47:39;;;;;;;;;;;;;;;11.86;100.00;96440.78;5039094;28;19929;-73
2022/03/30 07:50:06;;;;;;;;;;;;;;;11.88;100.00;96437.84;5054333;28;19968;-73
2022/03/30 07:52:34;;;;;;;;;;;;;;;12.55;100.00;96446.44;5053727;28;19964;-73
2022/03/30 07:55:00;;;;;;;;;;;;;;;12.26;100.00;96449.66;5059212;28;19925;-73
2022/03/30 07:57:27;;;;;;;;;;;;;;;12.13;100.00;96436.38;5043624;28;19996;-73
2022/03/30 07:59:54;;;;;;;;;;;;;;;12.07;100.00;96445.63;5059925;28;19960;-73
2022/03/30 08:02:21;;;;;;;;;;;;;;;12.07;100.00;96438.38;5057755;28;19925;-73
2022/03/30 08:04:47;;;;;;;;;;;;;;;12.04;100.00;96446.25;5040498;28;20011;-73
2022/03/30 08:07:14;;;;;;;;;;;;;;;12.06;100.00;96444.84;5061673;28;19925;-74
2022/03/30 08:09:42;;;;;;;;;;;;;;;12.20;100.00;96455.44;5061330;28;20182;-74
2022/03/30 08:12:09;;;;;;;;;;;;;;;13.00;100.00;96447.78;5040834;28;19964;-73
2022/03/30 08:14:35;;;;;;;;;;;;;;;13.56;100.00;96450.66;5057681;28;19979;-73
2022/03/30 08:17:02;;;;;;;;;;;;;;;13.69;100.00;96457.78;5060014;28;20247;-74
2022/03/30 08:19:28;;;;;;;;;;;;;;;13.84;100.00;96454.59;5060847;28;20479;-74
2022/03/30 08:24:40;;;;;;;;;;;;;;;14.19;100.00;96447.25;5057104;28;20360;-74
2022/03/30 08:27:08;;;;;;;;;;;;;;;14.21;100.00;96445.00;5060421;28;20436;-74
2022/03/30 08:29:34;;;;;;;;;;;;;;;14.32;100.00;96451.63;5061198;28;19951;-74
2022/03/30 08:32:00;;;;;;;;;;;;;;;14.33;100.00;96454.00;5061396;28;19935;-74
2022/03/30 08:34:27;;;;;;;;;;;;;;;14.13;100.00;96443.94;5059684;28;20017;-74
2022/03/30 08:36:53;;;;;;;;;;;;;;;14.18;100.00;96437.59;5043254;28;19947;-73
2022/03/30 08:39:20;;;;;;;;;;;;;;;14.26;100.00;96451.00;5045613;28;19960;-73
2022/03/30 08:41:47;;;;;;;;;;;;;;;14.30;100.00;96443.09;5061802;28;19939;-73
2022/03/30 08:44:17;;;;;;;;;;;;;;;14.36;100.00;96439.16;5057607;28;19925;-74
2022/03/30 08:46:45;;;;;;;;;;;;;;;14.29;100.00;96442.31;5057202;28;19940;-74
2022/03/30 08:49:11;;;;;;;;;;;;;;;14.40;100.00;96445.44;5048970;28;19992;-73
2022/03/30 08:51:38;;;;;;;;;;;;;;;14.39;100.00;96438.53;5031522;28;19962;-75
2022/03/30 08:54:05;;;;;;;;;;;;;;;14.27;100.00;96446.41;5031350;28;19936;-74
2022/03/30 08:56:31;;;;;;;;;;;;;;;14.35;100.00;96445.63;5048675;28;19991;-73
2022/03/30 08:59:01;;;;;;;;;;;;;;;14.25;100.00;96448.63;5048727;28;20012;-74
2022/03/30 09:01:32;;;;;;;;;;;;;;;14.36;100.00;96441.84;5039349;28;19929;-74
2022/03/30 09:03:59;;;;;;;;;;;;;;;14.48;100.00;96445.41;5039873;28;19950;-74
2022/03/30 09:06:30;;;;;;;;;;;;;;;14.50;100.00;96445.09;5038448;28;19931;-74
2022/03/30 09:08:57;;;;;;;;;;;;;;;14.51;100.00;96441.31;5058221;28;19925;-75
2022/03/30 09:11:26;;;;;;;;;;;;;;;14.38;100.00;96445.78;5058218;28;19925;-75
2022/03/30 09:14:00;;;;;;;;;;;;;;;14.43;100.00;96445.59;5058949;28;19967;-74
2022/03/30 09:16:36;;;;;;;;;;;;;;;14.37;100.00;96446.09;5038422;28;19976;-74
2022/03/30 09:19:04;;;;;;;;;;;;;;;14.43;100.00;96440.22;5058561;28;19997;-74
2022/03/30 09:21:39;;;;;;;;;;;;;;;14.53;100.00;96439.06;5041790;28;19948;-74
2022/03/30 09:24:06;;;;;;;;;;;;;;;14.55;100.00;96439.53;5057153;28;19936;-72
2022/03/30 09:26:33;;;;;;;;;;;;;;;14.14;100.00;96440.16;5063115;28;19957;-74
2022/03/30 09:29:00;;;;;;;;;;;;;;;14.02;100.00;96432.75;5039817;28;19928;-73
2022/03/30 09:31:27;;;;;;;;;;;;;;;13.97;100.00;96441.00;5056504;28;19929;-73
2022/03/30 09:33:54;;;;;;;;;;;;;;;14.01;100.00;96433.88;5057901;28;20232;-75
2022/03/30 09:36:28;;;;;;;;;;;;;;;14.13;100.00;96441.25;5058503;28;19924;-74
2022/03/30 09:38:55;;;;;;;;;;;;;;;14.07;100.00;96435.28;5058464;28;20000;-74
2022/03/30 09:41:21;;;;;;;;;;;;;;;13.93;100.00;96442.72;5055483;28;19976;-73
2022/03/30 09:43:48;;;;;;;;;;;;;;;14.05;100.00;96439.38;5055776;28;19925;-73
2022/03/30 09:46:15;;;;;;;;;;;;;;;13.92;100.00;96441.19;5055813;28;19971;-74
2022/03/30 09:48:49;;;;;;;;;;;;;;;13.95;100.00;96432.47;5056162;28;19925;-74
2022/03/30 09:51:16;;;;;;;;;;;;;;;13.87;100.00;96427.91;5055844;28;19925;-74
2022/03/30 09:53:45;;;;;;;;;;;;;;;13.98;100.00;96434.53;5056653;28;19948;-74
2022/03/30 09:56:14;;;;;;;;;;;;;;;14.21;100.00;96437.75;5047721;28;19967;-75
2022/03/30 09:58:41;;;;;;;;;;;;;;;14.10;100.00;96425.78;5029357;28;19925;-75
2022/03/30 10:01:12;;;;;;;;;;;;;;;14.05;100.00;96428.63;5029927;28;19926;-73
2022/03/30 10:03:41;;;;;;;;;;;;;;;14.11;100.00;96421.22;5047241;28;19985;-74
2022/03/30 10:06:09;;;;;;;;;;;;;;;14.19;100.00;96418.50;5047191;28;20004;-74
2022/03/30 10:08:36;;;;;;;;;;;;;;;14.18;100.00;96414.22;5047118;28;19935;-74
2022/03/30 10:11:04;;;;;;;;;;;;;;;14.32;100.00;96412.13;5046960;28;19988;-74
2022/03/30 10:13:30;;;;;;;;;;;;;;;14.06;100.00;96409.53;5052798;28;19929;-73
2022/03/30 10:15:57;;;;;;;;;;;;;;;14.06;100.00;96408.75;5056582;28;20079;-73
2022/03/30 10:18:23;;;;;;;;;;;;;;;14.05;100.00;96409.84;5054511;28;19999;-73
2022/03/30 10:20:51;;;;;;;;;;;;;;;14.21;100.00;96402.84;5037786;28;19929;-73
2022/03/30 10:23:22;;;;;;;;;;;;;;;14.30;100.00;96397.44;5058603;28;19925;-74
2022/03/30 10:25:57;;;;;;;;;;;;;;;14.41;100.00;96396.00;5040704;28;19948;-73
2022/03/30 10:28:26;;;;;;;;;;;;;;;14.47;100.00;96400.09;5056264;28;19925;-74
2022/03/30 10:30:54;;;;;;;;;;;;;;;14.13;100.00;96397.53;5056716;28;19925;-73
2022/03/30 10:33:30;;;;;;;;;;;;;;;14.04;100.00;96403.72;5041647;28;20333;-74
2022/03/30 10:35:58;;;;;;;;;;;;;;;13.95;100.00;96397.59;5056929;28;20042;-75
2022/03/30 10:38:24;;;;;;;;;;;;;;;14.07;100.00;96395.03;5037309;28;19925;-73
2022/03/30 10:41:05;;;;;;;;;;;;;;;14.20;100.00;96385.19;5056401;28;20157;-73
2022/03/30 10:43:33;;;;;;;;;;;;;;;14.01;100.00;96382.88;5058959;28;19925;-74
2022/03/30 10:46:01;;;;;;;;;;;;;;;14.21;100.00;96386.75;5056701;28;19940;-74
2022/03/30 10:48:37;;;;;;;;;;;;;;;14.19;100.00;96382.81;5054964;28;20032;-74
2022/03/30 10:51:15;;;;;;;;;;;;;;;14.13;100.00;96384.09;5040096;28;20562;-74
2022/03/30 10:53:43;;;;;;;;;;;;;;;14.05;100.00;96374.97;5058531;28;19936;-74
2022/03/30 10:56:28;;;;;;;;;;;;;;;14.12;100.00;96382.50;5037119;28;19925;-75
2022/03/30 10:59:15;;;;;;;;;;;;;;;14.11;100.00;96383.66;5056240;28;19935;-74
2022/03/30 11:01:42;;;;;;;;;;;;;;;14.08;100.00;96374.31;5040533;28;19944;-74
2022/03/30 11:04:20;;;;;;;;;;;;;;;13.97;100.00;96376.59;5054761;28;19925;-74
2022/03/30 11:06:47;;;;;;;;;;;;;;;14.09;100.00;96370.53;5054534;28;19925;-74
2022/03/30 11:09:25;;;;;;;;;;;;;;;13.90;100.00;96368.22;5057497;28;19925;-73
2022/03/30 11:12:00;;;;;;;;;;;;;;;13.94;100.00;96371.06;5056431;28;19936;-73
2022/03/30 11:14:31;;;;;;;;;;;;;;;13.93;100.00;96367.59;5053740;28;19925;-74
2022/03/30 11:16:58;;;;;;;;;;;;;;;13.95;100.00;96361.91;5038079;28;20650;-74
2022/03/30 11:19:29;;;;;;;;;;;;;;;13.91;100.00;96363.66;5040258;28;19964;-75
2022/03/30 11:21:56;;;;;;;;;;;;;;;14.06;100.00;96363.91;5055917;28;19963;-74
2022/03/30 11:24:24;;;;;;;;;;;;;;;14.25;100.00;96363.50;5053892;28;19984;-74
2022/03/30 11:27:21;;;;;;;;;;;;;;;14.38;100.00;96364.44;5056704;28;19925;-73
2022/03/30 11:30:03;;;;;;;;;;;;;;;14.01;100.00;96358.75;5059110;28;19925;-73
2022/03/30 11:32:41;;;;;;;;;;;;;;;13.88;100.00;96359.72;5056528;28;19960;-73
2022/03/30 11:35:10;;;;;;;;;;;;;;;13.91;100.00;96348.34;5059061;28;20024;-73
2022/03/30 11:37:37;;;;;;;;;;;;;;;13.92;100.00;96354.50;5060827;28;19932;-73
2022/03/30 11:40:05;;;;;;;;;;;;;;;13.90;100.00;96349.44;5056423;28;20314;-74
2022/03/30 11:42:31;;;;;;;;;;;;;;;14.12;100.00;96352.97;5055631;28;19929;-73
2022/03/30 11:45:14;;;;;;;;;;;;;;;14.03;100.00;96353.81;5056293;28;19925;-73
2022/03/30 11:47:43;;;;;;;;;;;;;;;13.86;100.00;96340.47;5056893;28;19925;-74
2022/03/30 11:50:10;;;;;;;;;;;;;;;14.06;100.00;96345.13;5035799;28;19967;-74
2022/03/30 11:52:37;;;;;;;;;;;;;;;13.97;100.00;96340.91;5053723;28;19933;-74
2022/03/30 11:55:03;;;;;;;;;;;;;;;14.13;100.00;96336.56;5056322;28;20319;-74
2022/03/30 11:57:30;;;;;;;;;;;;;;;14.20;100.00;96330.69;5056884;28;19988;-74
2022/03/30 11:59:57;;;;;;;;;;;;;;;14.12;100.00;96335.00;5055340;28;19936;-74
2022/03/30 12:02:25;;;;;;;;;;;;;;;14.26;100.00;96334.78;5053800;28;19925;-74
2022/03/30 12:04:53;;;;;;;;;;;;;;;14.21;100.00;96329.56;5036382;28;19925;-74
2022/03/30 12:07:20;;;;;;;;;;;;;;;14.03;100.00;96323.50;5040246;28;20341;-73
2022/03/30 12:09:47;;;;;;;;;;;;;;;14.28;100.00;96324.47;5057181;28;19974;-73
2022/03/30 12:12:14;;;;;;;;;;;;;;;14.32;100.00;96320.84;5036118;28;19931;-73
2022/03/30 12:14:41;;;;;;;;;;;;;;;14.45;100.00;96317.13;5035009;28;19932;-73
2022/03/30 12:17:08;;;;;;;;;;;;;;;14.44;100.00;96315.56;5038976;28;20007;-73
2022/03/30 12:19:34;;;;;;;;;;;;;;;14.21;100.00;96314.25;5056526;28;19925;-74
2022/03/30 12:22:11;;;;;;;;;;;;;;;14.18;100.00;96312.22;5054665;28;19925;-74
2022/03/30 12:24:37;;;;;;;;;;;;;;;14.30;100.00;96306.13;5053312;28;19925;-74
2022/03/30 12:27:04;;;;;;;;;;;;;;;14.17;100.00;96309.88;5055636;28;19932;-74
2022/03/30 12:29:32;;;;;;;;;;;;;;;14.37;100.00;96301.88;5056812;28;19925;-74
2022/03/30 12:31:59;;;;;;;;;;;;;;;14.26;100.00;96306.03;5054835;28;19968;-73
2022/03/30 12:34:27;;;;;;;;;;;;;;;14.21;100.00;96302.72;5053155;28;19932;-74
2022/03/30 12:36:58;;;;;;;;;;;;;;;14.00;100.00;96302.69;5054246;28;19945;-74
2022/03/30 12:39:27;;;;;;;;;;;;;;;13.86;100.00;96296.75;5057101;28;20011;-74
2022/03/30 12:42:00;;;;;;;;;;;;;;;13.91;100.00;96300.03;5059905;28;19925;-73
2022/03/30 12:44:28;;;;;;;;;;;;;;;14.17;100.00;96291.06;5042460;28;19968;-73
2022/03/30 12:46:55;;;;;;;;;;;;;;;13.98;100.00;96294.19;5058856;28;19925;-74
2022/03/30 12:49:31;;;;;;;;;;;;;;;14.01;100.00;96294.31;5056605;28;19925;-73
2022/03/30 12:52:04;;;;;;;;;;;;;;;14.10;100.00;96288.13;5040501;28;19925;-74